Flight Track Log - Related Links

Times and Time Zones

All times are in EDT time to prevent confusion due to time zone crossing. See the N550BL flight status page for this flight to view local times or setup timezone preferences in your user account.

Time Position Orientation Groundspeed Altitude Reporting Facility
EDT Latitude Longitude Course Direction KTS MPH feet Rate Location/Type
Mon 05:32:58 PM 33.6333 -117.8833 180° South 131 151 1,700  Level Southern California TRACON
Mon 05:33:53 PM 33.6000 -117.8833 180° South 138 159 2,400 1,041 Climbing Southern California TRACON
Mon 05:34:59 PM 33.5667 -117.8833 59° Northeast 136 157 3,800 1,095 Climbing Southern California TRACON
Mon 05:35:59 PM 33.5833 -117.8500 68° East 136 157 4,700 893 Climbing Southern California TRACON
Mon 05:37:00 PM 33.6000 -117.8000 40° Northeast 149 171 5,600 793 Climbing Southern California TRACON
Mon 05:38:00 PM 33.6333 -117.7667 51° Northeast 158 182 6,300 750 Climbing Southern California TRACON
Mon 05:39:00 PM 33.6667 -117.7167 23° Northeast 176 203 7,100 850 Climbing Southern California TRACON
Mon 05:40:00 PM 33.7000 -117.7000 29° Northeast 178 205 8,000 650 Climbing Southern California TRACON
Mon 05:41:00 PM 33.7500 -117.6667 87° East 208 239 8,400 579 Climbing Southern California TRACON
Mon 05:41:54 PM 33.7531 -117.6003 96° East 200 230 9,100 684 Climbing Los Angeles Center
Mon 05:42:54 PM 33.7475 -117.5353 95° East 200 230 9,700 550 Climbing Los Angeles Center
Mon 05:43:54 PM 33.7422 -117.4628 99° East 214 246 10,200 600 Climbing Los Angeles Center
Mon 05:44:54 PM 33.7344 -117.4025 96° East 228 262 10,900 750 Climbing Los Angeles Center
Mon 05:45:54 PM 33.7289 -117.3400 94° East 209 241 11,700 800 Climbing Los Angeles Center
Mon 05:46:54 PM 33.7253 -117.2775 96° East 193 222 12,500 550 Climbing Los Angeles Center
Mon 05:47:54 PM 33.7197 -117.2125 96° East 193 222 12,800 150 Climbing Los Angeles Center
Mon 05:48:54 PM 33.7119 -117.1300 95° East 212 244 12,800  Level Los Angeles Center
Mon 05:49:54 PM 33.7064 -117.0525 97° East 225 259 12,800  Level Los Angeles Center
Mon 05:50:54 PM 33.6986 -116.9775 95° East 225 259 12,800 50 Level Los Angeles Center
Mon 05:51:54 PM 33.6928 -116.8978 97° East 231 266 12,900 50 Climbing Los Angeles Center
Mon 05:52:54 PM 33.6850 -116.8228 95° East 231 266 12,900  Level Los Angeles Center
Mon 05:53:54 PM 33.6792 -116.7478 95° East 231 266 12,900  Level Los Angeles Center
Mon 05:54:54 PM 33.6733 -116.6653 95° East 236 272 12,900  Level Los Angeles Center
Mon 05:55:54 PM 33.6672 -116.5881 73° East 236 272 12,900 Level Los Angeles Center
Mon 06:03:15 PM 33.6768 -116.0630 71° East  Level FlightAware Approximate
Mon 06:04:15 PM 33.6935 -115.9901 71° East  Level FlightAware Approximate
Mon 06:05:15 PM 33.7101 -115.9171 71° East  Level FlightAware Approximate
Mon 06:06:15 PM 33.7266 -115.8441 71° East  Level FlightAware Approximate
Mon 06:07:15 PM 33.7431 -115.7711 71° East  Level FlightAware Approximate
Mon 06:08:15 PM 33.7596 -115.6981 71° East  Level FlightAware Approximate
Mon 06:09:15 PM 33.7760 -115.6251 71° East  Level FlightAware Approximate
Mon 06:10:15 PM 33.7923 -115.5520 71° East  Level FlightAware Approximate
Mon 06:11:15 PM 33.8087 -115.4789 71° East  Level FlightAware Approximate
Mon 06:12:15 PM 33.8250 -115.4057 71° East  Level FlightAware Approximate
Mon 06:13:15 PM 33.8412 -115.3326 71° East  Level FlightAware Approximate
Mon 06:14:15 PM 33.8574 -115.2594 71° East  Level FlightAware Approximate
Mon 06:15:15 PM 33.8736 -115.1862 71° East  Level FlightAware Approximate
Mon 06:16:15 PM 33.8897 -115.1129 71° East  Level FlightAware Approximate
Mon 06:17:15 PM 33.9057 -115.0397 71° East  Level FlightAware Approximate
Mon 06:18:15 PM 33.9218 -114.9664 71° East  Level FlightAware Approximate
Mon 06:19:15 PM 33.9377 -114.8930 71° East  Level FlightAware Approximate
Mon 06:20:15 PM 33.9511 -114.8189 70° East  Level FlightAware Approximate
Mon 06:21:15 PM 33.9645 -114.7448 70° East  Level FlightAware Approximate
Mon 06:22:15 PM 33.9778 -114.6707 70° East  Level FlightAware Approximate
Mon 06:23:15 PM 33.9911 -114.5965 70° East  Level FlightAware Approximate
Mon 06:24:15 PM 34.0043 -114.5223 70° East  Level FlightAware Approximate
Mon 06:25:15 PM 34.0175 -114.4481 70° East  Level FlightAware Approximate
Mon 06:26:15 PM 34.0306 -114.3739 69° East  Level FlightAware Approximate
Mon 06:27:15 PM 34.0437 -114.2997 69° East  Level FlightAware Approximate
Mon 06:28:15 PM 34.0567 -114.2254 69° East  Level FlightAware Approximate
Mon 06:29:15 PM 34.0697 -114.1511 69° East  Level FlightAware Approximate
Mon 06:30:15 PM 34.0827 -114.0768 68° East  Level FlightAware Approximate
Mon 06:31:15 PM 34.0956 -114.0024 68° East  Level FlightAware Approximate
Mon 06:32:15 PM 34.1085 -113.9280 68° East  Level FlightAware Approximate
Mon 06:33:15 PM 34.1213 -113.8537 67° East  Level FlightAware Approximate
Mon 06:34:15 PM 34.1341 -113.7793 67° East  Level FlightAware Approximate
Mon 06:35:15 PM 34.1468 -113.7048 67° East  Level FlightAware Approximate
Mon 06:36:15 PM 34.1595 -113.6304 66° East  Level FlightAware Approximate
Mon 06:37:15 PM 34.1721 -113.5559 66° East  Level FlightAware Approximate
Mon 06:38:15 PM 34.1847 -113.4814 65° Northeast  Level FlightAware Approximate
Mon 06:39:15 PM 34.1973 -113.4069 64° Northeast  Level FlightAware Approximate
Mon 06:40:15 PM 34.2098 -113.3323 64° Northeast  Level FlightAware Approximate
Mon 06:41:15 PM 34.2222 -113.2578 63° Northeast  Level FlightAware Approximate
Mon 06:42:15 PM 34.2346 -113.1832 62° Northeast  Level FlightAware Approximate
Mon 06:43:15 PM 34.2470 -113.1086 61° Northeast  Level FlightAware Approximate
Mon 06:44:15 PM 34.2593 -113.0339 60° Northeast  Level FlightAware Approximate
Mon 06:45:15 PM 34.2716 -112.9593 59° Northeast  Level FlightAware Approximate
Mon 06:46:15 PM 34.2838 -112.8846 58° Northeast  Level FlightAware Approximate
Mon 06:47:15 PM 34.2960 -112.8099 56° Northeast  Level FlightAware Approximate
Mon 06:48:15 PM 34.3082 -112.7352 54° Northeast  Level FlightAware Approximate
Mon 06:49:15 PM 34.3203 -112.6604 52° Northeast  Level FlightAware Approximate
Mon 06:50:15 PM 34.3323 -112.5857 50° Northeast  Level FlightAware Approximate
Mon 06:51:15 PM 34.3443 -112.5109 47° Northeast  Level FlightAware Approximate
Mon 06:52:15 PM 34.3563 -112.4361 44° Northeast  Level FlightAware Approximate
Mon 06:53:15 PM 34.3682 -112.3613 39° Northeast  Level FlightAware Approximate
Mon 06:54:15 PM 34.3801 -112.2864 34° Northeast  Level FlightAware Approximate
Mon 06:55:15 PM 34.3919 -112.2115 28° Northeast  Level FlightAware Approximate
Mon 06:56:15 PM 34.4026 -112.1364 20° North  Level FlightAware Approximate
Mon 06:57:15 PM 34.4132 -112.0612 11° North  Level FlightAware Approximate
Mon 06:58:15 PM 34.4238 -111.9861 North  Level FlightAware Approximate
Mon 06:59:15 PM 34.4343 -111.9109 350° North  Level FlightAware Approximate
Mon 06:59:53 PM 34.7503 -111.9794 83° East 218 251 13,000  Level Albuquerque Center
Mon 07:07:53 PM 34.8075 -111.3808 83° East 219 252 13,000  Level Albuquerque Center
Mon 07:10:53 PM 34.8294 -111.1517 83° East 219 252 13,000  Level Albuquerque Center
Mon 07:11:53 PM 34.8358 -111.0836 84° East 219 252 13,000 -100 Level Albuquerque Center
Mon 07:12:53 PM 34.8425 -111.0078 82° East 219 252 12,800 -100 Descending Albuquerque Center
Mon 07:13:53 PM 34.8508 -110.9325 84° East 219 252 12,800 50 Level Albuquerque Center
Mon 07:14:53 PM 34.8572 -110.8567 84° East 219 252 12,900 50 Climbing Albuquerque Center
Mon 07:15:53 PM 34.8639 -110.7786 81° East 219 252 12,900 -50 Level Albuquerque Center
Mon 07:16:53 PM 34.8744 -110.6981 86° East 237 273 12,800 -50 Descending Albuquerque Center
Mon 07:17:53 PM 34.8786 -110.6197 84° East 220 253 12,800  Level Albuquerque Center
Mon 07:18:53 PM 34.8847 -110.5464 84° East 215 247 12,800 50 Level Albuquerque Center
Mon 07:19:53 PM 34.8906 -110.4808 83° East 215 247 12,900  Climbing Albuquerque Center
Mon 07:20:53 PM 34.8989 -110.4000 84° East 215 247 12,800 50 Descending Albuquerque Center
Mon 07:21:53 PM 34.9050 -110.3269 84° East 215 247 13,000  Climbing Albuquerque Center
Mon 07:22:53 PM 34.9111 -110.2511 84° East 221 254 12,800 -100 Descending Albuquerque Center
Mon 07:23:53 PM 34.9167 -110.1881 84° East 215 247 12,800 -50 Level Albuquerque Center
Mon 07:24:53 PM 34.9228 -110.1122 85° East 215 247 12,700 -50 Descending Albuquerque Center
Mon 07:25:53 PM 34.9286 -110.0314 84° East 215 247 12,700 50 Level Albuquerque Center
Mon 07:26:53 PM 34.9344 -109.9581 84° East 215 247 12,800 50 Climbing Albuquerque Center
Mon 07:27:53 PM 34.9403 -109.8847 85° East 221 254 12,800  Level Albuquerque Center
Mon 07:28:53 PM 34.9461 -109.8064 85° East 216 249 12,800 -50 Level Albuquerque Center
Mon 07:29:53 PM 34.9517 -109.7306 85° East 216 249 12,700  Descending Albuquerque Center
Mon 07:30:53 PM 34.9572 -109.6597 83° East 221 254 12,800 50 Climbing Albuquerque Center
Mon 07:31:53 PM 34.9650 -109.5864 87° East 221 254 12,800  Level Albuquerque Center
Mon 07:32:53 PM 34.9686 -109.5028 83° East 221 254 12,800 50 Level Albuquerque Center
Mon 07:33:53 PM 34.9761 -109.4297 84° East 215 247 12,900 50 Climbing Albuquerque Center
Mon 07:34:53 PM 34.9814 -109.3639 85° East 215 247 12,900 50 Level Albuquerque Center
Mon 07:35:53 PM 34.9867 -109.2878 85° East 215 247 13,000  Climbing Albuquerque Center
Mon 07:36:53 PM 34.9922 -109.2069 85° East 215 247 12,900 -100 Descending Albuquerque Center
Mon 07:37:53 PM 34.9975 -109.1336 85° East 215 247 12,800  Descending Albuquerque Center
Mon 07:38:53 PM 35.0028 -109.0653 85° East 215 247 12,900 50 Climbing Albuquerque Center
Mon 07:39:53 PM 35.0081 -108.9867 85° East 215 247 12,900 -50 Level Albuquerque Center
Mon 07:40:53 PM 35.0131 -108.9133 85° East 215 247 12,800 -50 Descending Albuquerque Center
Mon 07:41:53 PM 35.0181 -108.8422 85° East 215 247 12,800 50 Level Albuquerque Center
Mon 07:42:53 PM 35.0231 -108.7739 85° East 215 247 12,900 50 Climbing Albuquerque Center
Mon 07:43:53 PM 35.0283 -108.6953 84° East 215 247 12,900 -50 Level Albuquerque Center
Mon 07:44:53 PM 35.0353 -108.6194 87° East 215 247 12,800 -50 Descending Albuquerque Center
Mon 07:45:53 PM 35.0381 -108.5458 85° East 221 254 12,800 50 Level Albuquerque Center
Mon 07:46:53 PM 35.0431 -108.4775 84° East 221 254 12,900 50 Climbing Albuquerque Center
Mon 07:47:53 PM 35.0500 -108.3939 87° East 216 249 12,900  Level Albuquerque Center
Mon 07:48:53 PM 35.0528 -108.3203 85° East 216 249 12,900 -50 Level Albuquerque Center
Mon 07:49:53 PM 35.0575 -108.2544 84° East 216 249 12,800 -50 Descending Albuquerque Center
Mon 07:50:53 PM 35.0642 -108.1783 88° East 216 249 12,800  Level Albuquerque Center
Mon 07:51:53 PM 35.0669 -108.0944 86° East 216 249 12,800  Level Albuquerque Center
Mon 07:52:53 PM 35.0714 -108.0183 85° East 222 255 12,800 -50 Level Albuquerque Center
Mon 07:53:54 PM 35.0761 -107.9475 84° East 222 255 12,700 50 Descending Albuquerque Center
Mon 07:54:53 PM 35.0825 -107.8764 83° East 222 255 12,900 101 Climbing Albuquerque Center
Mon 07:55:53 PM 35.0914 -107.7903 92° East 217 250 12,900 -50 Level Albuquerque Center
Mon 07:56:53 PM 35.0894 -107.7192 86° East 217 250 12,800  Descending Albuquerque Center
Mon 07:57:53 PM 35.0939 -107.6431 84° East 217 250 12,900  Climbing Albuquerque Center
Mon 07:58:53 PM 35.1003 -107.5694 84° East 217 250 12,800  Descending Albuquerque Center
Mon 07:59:53 PM 35.1067 -107.4931 88° East 217 250 12,900  Climbing Albuquerque Center
Mon 08:00:53 PM 35.1086 -107.4144 84° East 217 250 12,800  Descending Albuquerque Center
Mon 08:01:53 PM 35.1150 -107.3358 88° East 217 250 12,900 -650 Climbing Albuquerque Center
Mon 08:02:53 PM 35.1169 -107.2622 83° East 217 250 11,500 -950 Descending Albuquerque Center
Mon 08:03:53 PM 35.1233 -107.1936 86° East 217 250 11,000 -800 Descending Albuquerque Center
Mon 08:04:53 PM 35.1272 -107.1300 90° East 205 236 9,900 -1,121 Descending Albuquerque Center
Mon 08:05:24 PM 35.1272 -107.0997 88° East 182 209 9,300 -593 Descending Albuquerque Center
Mon 08:06:24 PM 35.1292 -107.0411 87° East 176 203 9,000 -275 Descending Albuquerque Center
Mon 08:07:13 PM 35.1311 -106.9903 83° East 176 203 8,800 -724 Descending Albuquerque Center
Mon 08:08:20 PM 35.1372 -106.9294 36° Northeast 170 196 7,600 -614 Descending Albuquerque Center
Mon 08:09:20 PM 35.1725 -106.8986 29° Northeast 175 201 7,500  Descending Albuquerque Center
Mon 08:10:21 PM 35.2100 -106.8731 67° East 165 190 7,600 98 Climbing Albuquerque Center
Mon 08:11:22 PM 35.2306 -106.8144 68° East 178 205 7,700 -104 Climbing Albuquerque Center
Mon 08:12:16 PM 35.2469 -106.7636 147° Southeast 185 213 7,400 -298 Descending Albuquerque Center
Mon 08:13:23 PM 35.2053 -106.7308 221° Southwest 161 185 7,100 -375 Descending Albuquerque Center
Mon 08:14:24 PM 35.1761 -106.7614 221° Southwest 144 166 6,600 -492 Descending Albuquerque Center

Login

Don't have an account? Register now (free) for customized features, flight alerts, and more!